Time;durP1;ratioP1;P1;durP2;ratioP2;P2;SDS_P1;SDS_P2;PMS_P1;PMS_P2;Temp;Humidity;BMP_temperature;BMP_pressure;BME280_temperature;BME280_humidity;BME280_pressure;Samples;Min_cycle;Max_cycle;Signal;HPM_P1;HPM_P2
2023/09/18 00:00:52;;;;;;;25.52;13.73;;;;;;;;;;5020563;28;20548;-69
2023/09/18 00:03:20;;;;;;;24.58;14.82;;;;;;;;;;5019597;28;20028;-69
2023/09/18 00:05:50;;;;;;;25.95;14.18;;;;;;;;;;5017337;28;20033;-69
2023/09/18 00:08:17;;;;;;;27.30;13.77;;;;;;;;;;5017204;28;20033;-69
2023/09/18 00:10:47;;;;;;;22.98;13.57;;;;;;;;;;5016829;28;20038;-69
2023/09/18 00:13:13;;;;;;;21.85;13.73;;;;;;;;;;5021253;28;20037;-69
2023/09/18 00:15:40;;;;;;;27.25;13.77;;;;;;;;;;5021127;28;20033;-69
2023/09/18 00:18:07;;;;;;;24.10;13.75;;;;;;;;;;5020392;28;20111;-69
2023/09/18 00:20:35;;;;;;;22.92;12.80;;;;;;;;;;5019519;28;20030;-69
2023/09/18 00:23:01;;;;;;;25.35;14.65;;;;;;;;;;5029610;28;20371;-70
2023/09/18 00:25:27;;;;;;;22.50;12.60;;;;;;;;;;5024059;28;20025;-70
2023/09/18 00:27:53;;;;;;;22.52;13.70;;;;;;;;;;5025331;28;20118;-69
2023/09/18 00:30:19;;;;;;;23.40;13.82;;;;;;;;;;5020691;28;20543;-70
2023/09/18 00:32:46;;;;;;;25.83;14.52;;;;;;;;;;5019620;28;20034;-69
2023/09/18 00:35:13;;;;;;;21.38;12.63;;;;;;;;;;5010073;28;20046;-69
2023/09/18 00:37:39;;;;;;;18.85;12.65;;;;;;;;;;5019715;28;20387;-69
2023/09/18 00:40:06;;;;;;;19.40;12.40;;;;;;;;;;5020478;28;20390;-69
2023/09/18 00:42:32;;;;;;;18.08;11.45;;;;;;;;;;5021803;28;20367;-70
2023/09/18 00:44:58;;;;;;;19.27;11.70;;;;;;;;;;5025833;28;20021;-70
2023/09/18 00:47:25;;;;;;;19.50;11.90;;;;;;;;;;5029588;28;20030;-71
2023/09/18 00:49:51;;;;;;;19.10;11.43;;;;;;;;;;5022232;28;20044;-71
2023/09/18 00:52:18;;;;;;;22.98;12.52;;;;;;;;;;5021460;28;20030;-71
2023/09/18 00:54:44;;;;;;;22.25;12.48;;;;;;;;;;5012614;28;20490;-70
2023/09/18 00:57:11;;;;;;;21.65;12.98;;;;;;;;;;5023692;28;20040;-70
2023/09/18 00:59:37;;;;;;;19.38;12.90;;;;;;;;;;5024413;28;20044;-69
2023/09/18 01:02:04;;;;;;;18.65;13.45;;;;;;;;;;5014813;28;20378;-69
2023/09/18 01:04:32;;;;;;;21.67;13.23;;;;;;;;;;5021864;28;20049;-69
2023/09/18 01:07:01;;;;;;;21.90;12.68;;;;;;;;;;5019302;28;20021;-69
2023/09/18 01:09:27;;;;;;;23.73;13.20;;;;;;;;;;5019380;28;20392;-69
2023/09/18 01:12:06;;;;;;;25.13;15.02;;;;;;;;;;5023855;28;20116;-69
2023/09/18 01:14:38;;;;;;;27.67;14.05;;;;;;;;;;5018801;28;20625;-69
2023/09/18 01:17:05;;;;;;;27.98;15.35;;;;;;;;;;5014106;28;20034;-69
2023/09/18 01:19:41;;;;;;;27.42;15.57;;;;;;;;;;5016036;28;20117;-69
2023/09/18 01:22:09;;;;;;;25.60;14.88;;;;;;;;;;5024246;28;20033;-69
2023/09/18 01:24:35;;;;;;;28.88;17.33;;;;;;;;;;5021137;28;20041;-70
2023/09/18 01:27:03;;;;;;;32.75;15.68;;;;;;;;;;5020558;28;20021;-69
2023/09/18 01:29:29;;;;;;;29.38;16.25;;;;;;;;;;5024352;28;20026;-69
2023/09/18 01:31:55;;;;;;;29.55;15.10;;;;;;;;;;5023652;28;20029;-69
2023/09/18 01:34:28;;;;;;;29.42;16.45;;;;;;;;;;5021470;28;20116;-69
2023/09/18 01:36:56;;;;;;;29.67;15.38;;;;;;;;;;5017049;28;20033;-69
2023/09/18 01:39:22;;;;;;;31.50;17.05;;;;;;;;;;5023954;28;20053;-69
2023/09/18 01:41:48;;;;;;;32.55;16.08;;;;;;;;;;5022973;28;20485;-69
2023/09/18 01:44:14;;;;;;;28.27;14.98;;;;;;;;;;5013802;28;20026;-69
2023/09/18 01:46:41;;;;;;;29.40;16.33;;;;;;;;;;5023664;28;20108;-70
2023/09/18 01:49:08;;;;;;;30.73;16.67;;;;;;;;;;5017338;28;20025;-69
2023/09/18 01:51:34;;;;;;;31.27;16.75;;;;;;;;;;5019312;28;20060;-69
2023/09/18 01:54:01;;;;;;;32.53;17.95;;;;;;;;;;5015826;28;20029;-70
2023/09/18 01:56:27;;;;;;;31.00;16.88;;;;;;;;;;5016837;28;20124;-69
2023/09/18 01:58:53;;;;;;;32.30;17.90;;;;;;;;;;5024934;28;20147;-69
2023/09/18 02:01:19;;;;;;;29.98;15.68;;;;;;;;;;5023013;28;20028;-69
2023/09/18 02:03:45;;;;;;;28.58;15.93;;;;;;;;;;5008765;28;20025;-70
2023/09/18 02:06:11;;;;;;;30.25;15.25;;;;;;;;;;5019731;28;20040;-69
2023/09/18 02:08:37;;;;;;;29.63;16.13;;;;;;;;;;5018883;28;20032;-69
2023/09/18 02:11:04;;;;;;;27.50;14.10;;;;;;;;;;5026705;28;20489;-71
2023/09/18 02:13:30;;;;;;;28.27;13.57;;;;;;;;;;5021967;28;20112;-69
2023/09/18 02:15:56;;;;;;;26.15;13.45;;;;;;;;;;5023540;28;20461;-69
2023/09/18 02:18:22;;;;;;;19.42;12.65;;;;;;;;;;5013774;28;20289;-69
2023/09/18 02:20:49;;;;;;;21.33;12.73;;;;;;;;;;5022924;28;20033;-69
2023/09/18 02:23:19;;;;;;;20.88;11.25;;;;;;;;;;5024468;28;20657;-69
2023/09/18 02:25:45;;;;;;;18.70;11.27;;;;;;;;;;5017687;28;20452;-69
2023/09/18 02:28:11;;;;;;;20.75;12.77;;;;;;;;;;5017719;28;20018;-70
2023/09/18 02:30:37;;;;;;;17.10;9.80;;;;;;;;;;5011465;28;20026;-70
2023/09/18 02:33:03;;;;;;;18.23;10.35;;;;;;;;;;5027677;28;20453;-70
2023/09/18 02:35:30;;;;;;;20.25;10.90;;;;;;;;;;5024382;28;20033;-69
2023/09/18 02:37:56;;;;;;;16.45;10.52;;;;;;;;;;5024421;28;20042;-70
2023/09/18 02:40:22;;;;;;;19.17;10.50;;;;;;;;;;5021327;28;20029;-69
2023/09/18 02:42:49;;;;;;;17.40;9.52;;;;;;;;;;5019370;28;20056;-70
2023/09/18 02:45:15;;;;;;;16.73;9.07;;;;;;;;;;5015100;28;20455;-69
2023/09/18 02:47:42;;;;;;;14.68;9.15;;;;;;;;;;5005915;28;20172;-70
2023/09/18 02:50:08;;;;;;;10.85;7.82;;;;;;;;;;5022488;28;20462;-69
2023/09/18 02:52:34;;;;;;;12.68;8.07;;;;;;;;;;5020948;28;20485;-69
2023/09/18 02:55:00;;;;;;;12.00;7.78;;;;;;;;;;5019728;28;20030;-69
2023/09/18 02:57:26;;;;;;;9.48;6.53;;;;;;;;;;5016116;28;20120;-69
2023/09/18 02:59:52;;;;;;;12.65;6.78;;;;;;;;;;5018442;28;20030;-69
2023/09/18 03:02:18;;;;;;;8.45;5.70;;;;;;;;;;5017157;28;20032;-69
2023/09/18 03:04:45;;;;;;;7.93;5.43;;;;;;;;;;5053811;28;20028;-70
2023/09/18 03:07:13;;;;;;;7.38;4.88;;;;;;;;;;5021298;28;20264;-70
2023/09/18 03:09:39;;;;;;;6.95;5.10;;;;;;;;;;5011678;28;20037;-69
2023/09/18 03:12:05;;;;;;;6.28;4.82;;;;;;;;;;5022310;28;20026;-69
2023/09/18 03:14:31;;;;;;;6.47;4.65;;;;;;;;;;5020553;28;20041;-69
2023/09/18 03:16:58;;;;;;;7.35;4.78;;;;;;;;;;5021196;28;20056;-70
2023/09/18 03:19:24;;;;;;;6.32;4.30;;;;;;;;;;5018740;28;20029;-69
2023/09/18 03:21:50;;;;;;;7.68;4.35;;;;;;;;;;5016493;28;20024;-70
2023/09/18 03:24:16;;;;;;;5.65;4.03;;;;;;;;;;5012039;28;20463;-71
2023/09/18 03:26:43;;;;;;;4.72;3.85;;;;;;;;;;5019307;28;20524;-69
2023/09/18 03:29:09;;;;;;;5.45;3.72;;;;;;;;;;5014953;28;20022;-70
2023/09/18 03:31:35;;;;;;;5.53;4.03;;;;;;;;;;5015125;28;20118;-69
2023/09/18 03:34:01;;;;;;;5.18;3.85;;;;;;;;;;5021124;28;20022;-70
2023/09/18 03:36:27;;;;;;;5.57;3.88;;;;;;;;;;5019702;28;20245;-69
2023/09/18 03:38:53;;;;;;;8.45;4.43;;;;;;;;;;5014610;28;20053;-70
2023/09/18 03:41:19;;;;;;;5.45;3.67;;;;;;;;;;5021109;28;20428;-69
2023/09/18 03:43:45;;;;;;;6.40;3.45;;;;;;;;;;5020139;28;20064;-70
2023/09/18 03:46:11;;;;;;;5.25;3.50;;;;;;;;;;5020808;28;20555;-70
2023/09/18 03:48:37;;;;;;;6.90;3.95;;;;;;;;;;5024325;28;20421;-69
2023/09/18 03:51:08;;;;;;;4.82;3.70;;;;;;;;;;5018508;28;20017;-70
2023/09/18 03:53:34;;;;;;;5.90;4.13;;;;;;;;;;5020084;28;20033;-69
2023/09/18 03:56:00;;;;;;;5.30;3.72;;;;;;;;;;5017843;28;20028;-69
2023/09/18 03:58:26;;;;;;;4.93;3.20;;;;;;;;;;5021076;28;20727;-69
2023/09/18 04:00:53;;;;;;;6.25;3.97;;;;;;;;;;5019692;28;20497;-69
2023/09/18 04:03:19;;;;;;;5.13;3.33;;;;;;;;;;5029588;28;20518;-69
2023/09/18 04:05:45;;;;;;;4.80;3.22;;;;;;;;;;5026443;28;20112;-69
2023/09/18 04:08:13;;;;;;;4.68;3.20;;;;;;;;;;5024625;28;20034;-69
2023/09/18 04:10:39;;;;;;;5.45;3.65;;;;;;;;;;5022407;28;20029;-70
2023/09/18 04:13:05;;;;;;;5.13;3.40;;;;;;;;;;5019325;28;20037;-69
2023/09/18 04:15:31;;;;;;;4.65;3.30;;;;;;;;;;5020776;28;20091;-69
2023/09/18 04:17:57;;;;;;;4.25;3.22;;;;;;;;;;5013764;28;20033;-69
2023/09/18 04:20:27;;;;;;;7.03;3.78;;;;;;;;;;5024090;28;20080;-69
2023/09/18 04:23:12;;;;;;;5.75;3.50;;;;;;;;;;5020346;28;20030;-69
2023/09/18 04:25:39;;;;;;;7.10;4.45;;;;;;;;;;5031725;28;20029;-69
2023/09/18 04:28:05;;;;;;;6.30;4.60;;;;;;;;;;5024063;28;20022;-69
2023/09/18 04:30:31;;;;;;;6.30;4.07;;;;;;;;;;5021942;28;20057;-69
2023/09/18 04:32:58;;;;;;;5.82;4.15;;;;;;;;;;5022678;28;20546;-69
2023/09/18 04:35:25;;;;;;;4.97;3.70;;;;;;;;;;5023494;28;20032;-68
2023/09/18 04:37:51;;;;;;;5.28;3.83;;;;;;;;;;5018648;28;20246;-69
2023/09/18 04:40:17;;;;;;;4.05;3.65;;;;;;;;;;5021940;28;20037;-69
2023/09/18 04:42:43;;;;;;;5.30;3.75;;;;;;;;;;5025862;28;20127;-69
2023/09/18 04:45:09;;;;;;;6.10;3.95;;;;;;;;;;5019498;28;20488;-69
2023/09/18 04:47:35;;;;;;;5.20;3.83;;;;;;;;;;5021135;28;20052;-69
2023/09/18 04:50:05;;;;;;;6.63;3.67;;;;;;;;;;5035180;28;20029;-69
2023/09/18 04:52:31;;;;;;;5.05;4.40;;;;;;;;;;5023572;28;20109;-70
2023/09/18 04:54:57;;;;;;;5.07;3.72;;;;;;;;;;5023414;28;20467;-69
2023/09/18 04:57:23;;;;;;;7.20;4.55;;;;;;;;;;5020680;28;20029;-70
2023/09/18 04:59:50;;;;;;;6.10;3.90;;;;;;;;;;5018700;28;20036;-70
2023/09/18 05:02:16;;;;;;;7.15;3.92;;;;;;;;;;5021424;28;20029;-69
2023/09/18 05:04:42;;;;;;;4.78;3.72;;;;;;;;;;5019058;28;20711;-69
2023/09/18 05:07:09;;;;;;;6.55;3.83;;;;;;;;;;5015728;28;20025;-69
2023/09/18 05:09:38;;;;;;;6.90;4.05;;;;;;;;;;5021167;28;20021;-70
2023/09/18 05:12:08;;;;;;;6.75;4.10;;;;;;;;;;5027813;28;20024;-70
2023/09/18 05:14:34;;;;;;;4.95;3.90;;;;;;;;;;5022826;28;20034;-68
2023/09/18 05:17:00;;;;;;;4.75;4.15;;;;;;;;;;5018233;28;20515;-69
2023/09/18 05:19:26;;;;;;;6.38;4.00;;;;;;;;;;5021416;28;20085;-69
2023/09/18 05:21:52;;;;;;;7.63;4.18;;;;;;;;;;5022524;28;20034;-69
2023/09/18 05:24:26;;;;;;;5.90;3.75;;;;;;;;;;5023338;28;20021;-69
2023/09/18 05:26:52;;;;;;;4.95;3.53;;;;;;;;;;5026101;28;20543;-69
2023/09/18 05:29:19;;;;;;;4.32;3.42;;;;;;;;;;5022328;28;20469;-69
2023/09/18 05:31:45;;;;;;;6.03;3.40;;;;;;;;;;5007761;28;20033;-68
2023/09/18 05:34:12;;;;;;;4.68;2.83;;;;;;;;;;5024299;28;20025;-67
2023/09/18 05:36:38;;;;;;;6.03;2.83;;;;;;;;;;5018542;28;20037;-67
2023/09/18 05:39:04;;;;;;;3.13;2.75;;;;;;;;;;5016486;28;20041;-66
2023/09/18 05:41:31;;;;;;;3.83;2.53;;;;;;;;;;5023597;28;20056;-66
2023/09/18 05:43:57;;;;;;;3.72;2.65;;;;;;;;;;5021182;28;20521;-67
2023/09/18 05:46:23;;;;;;;3.05;2.30;;;;;;;;;;5025415;28;20487;-67
2023/09/18 05:48:49;;;;;;;3.33;2.40;;;;;;;;;;5021178;28;20025;-67
2023/09/18 05:51:15;;;;;;;3.50;2.22;;;;;;;;;;5019610;28;20026;-68
2023/09/18 05:53:41;;;;;;;4.05;2.67;;;;;;;;;;5011048;28;20034;-67
2023/09/18 05:56:09;;;;;;;4.50;2.60;;;;;;;;;;5014335;28;20060;-68
2023/09/18 05:58:35;;;;;;;4.32;2.22;;;;;;;;;;5020317;28;20429;-67
2023/09/18 06:01:04;;;;;;;4.25;2.50;;;;;;;;;;5021997;28;20033;-66
2023/09/18 06:03:35;;;;;;;4.00;2.45;;;;;;;;;;5014474;28;20048;-67
2023/09/18 06:06:01;;;;;;;2.67;2.47;;;;;;;;;;5013819;28;20026;-66
2023/09/18 06:08:28;;;;;;;4.18;2.35;;;;;;;;;;5015100;28;20426;-66
2023/09/18 06:10:55;;;;;;;3.28;2.20;;;;;;;;;;5011803;28;20148;-67
2023/09/18 06:13:22;;;;;;;3.97;2.05;;;;;;;;;;5021505;28;20061;-66
2023/09/18 06:15:48;;;;;;;4.90;2.47;;;;;;;;;;5017642;28;20369;-66
2023/09/18 06:18:14;;;;;;;3.15;2.55;;;;;;;;;;5024197;28;20047;-67
2023/09/18 06:20:41;;;;;;;3.38;2.30;;;;;;;;;;5014526;28;20122;-67
2023/09/18 06:23:07;;;;;;;3.00;2.40;;;;;;;;;;5021010;28;20025;-67
2023/09/18 06:25:33;;;;;;;3.92;2.58;;;;;;;;;;5023629;28;20516;-67
2023/09/18 06:28:00;;;;;;;3.22;2.53;;;;;;;;;;5026279;28;20513;-66
2023/09/18 06:30:27;;;;;;;3.33;2.40;;;;;;;;;;5021050;28;20037;-66
2023/09/18 06:32:53;;;;;;;4.18;2.75;;;;;;;;;;5021239;28;20041;-66
2023/09/18 06:35:19;;;;;;;4.07;2.83;;;;;;;;;;5017970;28;20037;-67
2023/09/18 06:37:45;;;;;;;4.55;2.80;;;;;;;;;;5012314;28;20064;-67
2023/09/18 06:40:12;;;;;;;3.67;2.17;;;;;;;;;;5019019;28;20052;-67
2023/09/18 06:42:39;;;;;;;5.13;2.60;;;;;;;;;;5017961;28;20107;-67
2023/09/18 06:45:06;;;;;;;3.00;2.35;;;;;;;;;;5022040;28;20092;-69
2023/09/18 06:47:33;;;;;;;4.75;2.50;;;;;;;;;;5020004;28;20061;-68
2023/09/18 06:50:00;;;;;;;2.70;2.45;;;;;;;;;;5018926;28;20040;-69
2023/09/18 06:52:27;;;;;;;6.43;2.28;;;;;;;;;;5017416;28;20029;-68
2023/09/18 06:54:54;;;;;;;4.75;1.92;;;;;;;;;;5014850;28;20060;-68
2023/09/18 06:57:21;;;;;;;4.22;2.40;;;;;;;;;;5018174;28;20491;-69
2023/09/18 06:59:48;;;;;;;6.80;2.30;;;;;;;;;;5023591;28;20481;-68
2023/09/18 07:02:14;;;;;;;5.28;2.40;;;;;;;;;;5019476;28;20036;-69
2023/09/18 07:04:44;;;;;;;5.82;2.70;;;;;;;;;;5017565;28;20080;-68
2023/09/18 07:07:13;;;;;;;5.40;2.88;;;;;;;;;;5017441;28;20034;-68
2023/09/18 07:09:40;;;;;;;4.35;2.20;;;;;;;;;;5026415;28;20038;-70
2023/09/18 07:12:06;;;;;;;5.70;2.00;;;;;;;;;;5019507;28;20261;-75
2023/09/18 07:14:33;;;;;;;3.33;2.00;;;;;;;;;;5022359;28;20124;-71
2023/09/18 07:17:00;;;;;;;3.95;2.00;;;;;;;;;;5025388;28;20468;-66
2023/09/18 07:19:26;;;;;;;5.00;2.13;;;;;;;;;;5014910;28;20034;-67
2023/09/18 07:21:53;;;;;;;2.85;1.92;;;;;;;;;;5018758;28;20036;-67
2023/09/18 07:24:20;;;;;;;4.03;2.30;;;;;;;;;;5020562;28;20036;-69
2023/09/18 07:26:47;;;;;;;3.13;2.08;;;;;;;;;;5017234;28;20026;-68
2023/09/18 07:29:16;;;;;;;8.45;2.60;;;;;;;;;;5016520;28;20028;-67
2023/09/18 07:31:43;;;;;;;4.22;2.10;;;;;;;;;;5023611;28;20025;-68
2023/09/18 07:34:09;;;;;;;5.60;2.10;;;;;;;;;;5020983;28;20041;-67
2023/09/18 07:36:36;;;;;;;4.45;2.10;;;;;;;;;;5023897;28;20037;-67
2023/09/18 07:39:04;;;;;;;3.97;2.00;;;;;;;;;;5026354;28;21207;-68
2023/09/18 07:41:30;;;;;;;7.15;2.28;;;;;;;;;;5025466;28;20038;-68
2023/09/18 07:43:58;;;;;;;4.25;2.20;;;;;;;;;;5018344;28;20025;-67
2023/09/18 07:46:24;;;;;;;8.00;2.70;;;;;;;;;;5026317;28;20037;-69
2023/09/18 07:48:50;;;;;;;6.32;3.20;;;;;;;;;;5012463;28;20386;-69
2023/09/18 07:51:16;;;;;;;5.75;2.50;;;;;;;;;;5018566;28;20379;-69
2023/09/18 07:53:43;;;;;;;4.65;2.25;;;;;;;;;;5017893;28;20063;-67
2023/09/18 07:56:09;;;;;;;7.03;3.08;;;;;;;;;;5017106;28;20033;-68
2023/09/18 07:58:38;;;;;;;4.10;2.05;;;;;;;;;;5015287;28;20116;-67
2023/09/18 08:01:05;;;;;;;4.53;2.28;;;;;;;;;;5022826;28;20029;-68
2023/09/18 08:03:31;;;;;;;5.25;2.40;;;;;;;;;;5020193;28;20299;-66
2023/09/18 08:05:57;;;;;;;4.05;2.03;;;;;;;;;;5031425;28;20403;-66
2023/09/18 08:08:24;;;;;;;9.80;2.22;;;;;;;;;;5020309;28;20030;-68
2023/09/18 08:10:51;;;;;;;6.32;2.38;;;;;;;;;;5022786;28;20044;-68
2023/09/18 08:13:17;;;;;;;6.05;2.95;;;;;;;;;;5019892;28;20048;-67
2023/09/18 08:15:44;;;;;;;7.18;2.60;;;;;;;;;;5016945;28;20475;-65
2023/09/18 08:18:15;;;;;;;9.25;3.45;;;;;;;;;;5019025;28;20033;-66
2023/09/18 08:20:44;;;;;;;6.45;2.42;;;;;;;;;;5020918;28;20116;-69
2023/09/18 08:23:11;;;;;;;10.45;3.10;;;;;;;;;;5023207;28;20112;-68
2023/09/18 08:25:37;;;;;;;6.82;2.30;;;;;;;;;;5022242;28;21416;-70
2023/09/18 08:28:06;;;;;;;10.57;3.65;;;;;;;;;;5018112;28;20022;-69
2023/09/18 08:30:32;;;;;;;9.85;3.67;;;;;;;;;;5035536;28;20044;-71
2023/09/18 08:32:58;;;;;;;9.10;2.85;;;;;;;;;;5019910;28;20460;-69
2023/09/18 08:35:29;;;;;;;12.00;3.30;;;;;;;;;;5022871;28;20037;-70
2023/09/18 08:37:55;;;;;;;5.93;2.63;;;;;;;;;;5021323;28;20108;-69
2023/09/18 08:40:25;;;;;;;7.68;3.50;;;;;;;;;;5018746;28;20045;-69
2023/09/18 08:42:53;;;;;;;3.30;2.30;;;;;;;;;;5015843;28;20014;-67
2023/09/18 08:45:35;;;;;;;6.78;2.25;;;;;;;;;;5013114;28;20108;-69
2023/09/18 08:48:02;;;;;;;4.32;2.40;;;;;;;;;;5015322;28;20033;-69
2023/09/18 08:50:29;;;;;;;5.68;2.47;;;;;;;;;;5012243;28;21639;-67
2023/09/18 08:52:56;;;;;;;6.00;2.70;;;;;;;;;;5016200;28;20533;-69
2023/09/18 08:55:22;;;;;;;7.63;3.08;;;;;;;;;;5012929;28;20060;-68
2023/09/18 08:57:49;;;;;;;10.52;3.05;;;;;;;;;;5016541;28;20037;-70
2023/09/18 09:00:19;;;;;;;8.35;2.72;;;;;;;;;;5019931;28;20026;-69
2023/09/18 09:02:45;;;;;;;8.38;2.78;;;;;;;;;;5015662;28;20026;-68
2023/09/18 09:05:12;;;;;;;6.60;2.28;;;;;;;;;;5014692;28;20025;-68
2023/09/18 09:07:38;;;;;;;4.18;2.30;;;;;;;;;;5016224;28;20027;-70
2023/09/18 09:10:05;;;;;;;9.35;2.47;;;;;;;;;;5019037;28;20057;-68
2023/09/18 09:12:49;;;;;;;8.20;2.40;;;;;;;;;;5014605;28;20063;-67
2023/09/18 09:15:16;;;;;;;10.30;2.55;;;;;;;;;;5013489;28;20034;-68
2023/09/18 09:17:44;;;;;;;6.30;2.92;;;;;;;;;;5016830;28;20029;-68
2023/09/18 09:20:11;;;;;;;5.55;3.38;;;;;;;;;;5032353;28;20485;-68
2023/09/18 09:22:37;;;;;;;4.82;2.40;;;;;;;;;;5024464;28;20413;-68
2023/09/18 09:25:04;;;;;;;6.13;2.50;;;;;;;;;;5024115;28;20444;-69
2023/09/18 09:27:30;;;;;;;10.93;2.58;;;;;;;;;;5017303;28;20393;-68
2023/09/18 09:29:59;;;;;;;11.85;3.20;;;;;;;;;;5014911;28;20391;-67
2023/09/18 09:32:30;;;;;;;8.35;2.70;;;;;;;;;;5015901;28;20029;-66
2023/09/18 09:35:03;;;;;;;9.90;2.63;;;;;;;;;;5013203;28;20375;-68
2023/09/18 09:37:32;;;;;;;7.60;2.53;;;;;;;;;;5013062;28;20045;-67
2023/09/18 09:40:08;;;;;;;13.25;3.85;;;;;;;;;;5032878;28;20037;-69
2023/09/18 09:42:39;;;;;;;10.60;3.92;;;;;;;;;;5015706;28;20378;-67
2023/09/18 09:45:05;;;;;;;6.15;2.55;;;;;;;;;;5015961;28;20105;-68
2023/09/18 09:47:35;;;;;;;9.52;2.95;;;;;;;;;;5014321;28;20026;-68
2023/09/18 09:50:09;;;;;;;7.40;2.25;;;;;;;;;;5012074;28;20034;-68
2023/09/18 09:52:36;;;;;;;6.03;2.20;;;;;;;;;;5013080;28;20563;-69
2023/09/18 09:55:18;;;;;;;5.80;2.55;;;;;;;;;;5014034;28;20029;-68
2023/09/18 09:57:48;;;;;;;6.55;2.45;;;;;;;;;;5007110;28;20038;-68
2023/09/18 10:00:30;;;;;;;10.85;2.72;;;;;;;;;;5012932;28;20033;-68
2023/09/18 10:03:06;;;;;;;7.40;3.30;;;;;;;;;;5009879;28;20025;-67
2023/09/18 10:05:34;;;;;;;7.80;2.25;;;;;;;;;;5012812;28;20030;-69
2023/09/18 10:08:01;;;;;;;8.15;2.72;;;;;;;;;;5010643;28;20033;-70
2023/09/18 10:10:35;;;;;;;6.07;2.47;;;;;;;;;;5014330;28;20037;-70
2023/09/18 10:13:06;;;;;;;9.15;2.58;;;;;;;;;;5013261;28;20033;-71
2023/09/18 10:15:38;;;;;;;7.72;3.00;;;;;;;;;;5018244;28;20040;-67
2023/09/18 10:18:08;;;;;;;7.05;2.95;;;;;;;;;;5009871;28;20112;-68
2023/09/18 10:20:37;;;;;;;7.47;2.67;;;;;;;;;;5015085;28;20486;-68
2023/09/18 10:23:05;;;;;;;7.53;3.35;;;;;;;;;;5015605;28;20561;-71
2023/09/18 10:25:32;;;;;;;8.13;2.45;;;;;;;;;;5018906;28;20029;-68
2023/09/18 10:28:02;;;;;;;7.38;2.65;;;;;;;;;;5013494;28;20036;-68
2023/09/18 10:30:29;;;;;;;10.70;2.80;;;;;;;;;;5031101;28;20116;-68
2023/09/18 10:32:59;;;;;;;4.97;2.28;;;;;;;;;;5012527;28;20473;-68
2023/09/18 10:35:25;;;;;;;5.65;2.72;;;;;;;;;;5012021;28;20045;-71
2023/09/18 10:37:54;;;;;;;8.98;3.08;;;;;;;;;;5014150;28;20037;-70
2023/09/18 10:40:21;;;;;;;7.82;2.60;;;;;;;;;;5015343;28;20037;-71
2023/09/18 10:42:48;;;;;;;9.05;2.88;;;;;;;;;;5013795;28;20029;-70
2023/09/18 10:45:15;;;;;;;10.48;3.00;;;;;;;;;;5015533;28;20035;-69
2023/09/18 10:47:45;;;;;;;13.55;2.67;;;;;;;;;;5012406;28;20104;-68
2023/09/18 10:50:11;;;;;;;6.05;2.70;;;;;;;;;;5015164;28;20508;-68
2023/09/18 10:52:44;;;;;;;8.32;2.35;;;;;;;;;;5015632;28;20045;-68
2023/09/18 10:55:14;;;;;;;10.75;3.55;;;;;;;;;;5011473;28;20109;-69
2023/09/18 10:58:10;;;;;;;10.52;2.70;;;;;;;;;;5013384;28;20111;-69
2023/09/18 11:00:36;;;;;;;7.90;2.20;;;;;;;;;;5011458;28;20380;-71
2023/09/18 11:03:19;;;;;;;3.50;2.20;;;;;;;;;;5012466;28;20449;-71
2023/09/18 11:05:46;;;;;;;11.23;3.53;;;;;;;;;;5014029;28;20030;-71
2023/09/18 11:08:28;;;;;;;6.07;2.42;;;;;;;;;;5014294;28;20362;-66
2023/09/18 11:11:29;;;;;;;9.82;3.15;;;;;;;;;;5016023;28;20025;-69
2023/09/18 11:13:56;;;;;;;6.82;2.30;;;;;;;;;;5008196;28;20060;-69
2023/09/18 11:16:28;;;;;;;12.07;2.70;;;;;;;;;;5019188;28;20025;-72
2023/09/18 11:19:01;;;;;;;6.35;2.38;;;;;;;;;;5014253;28;20512;-69
2023/09/18 11:21:34;;;;;;;7.60;2.33;;;;;;;;;;5017696;28;20041;-69
2023/09/18 11:24:00;;;;;;;6.93;2.97;;;;;;;;;;5018120;28;20504;-70
2023/09/18 11:26:30;;;;;;;7.18;2.10;;;;;;;;;;5012573;28;20497;-69
2023/09/18 11:28:59;;;;;;;7.38;2.45;;;;;;;;;;5015083;28;20538;-70
2023/09/18 11:31:44;;;;;;;4.60;2.10;;;;;;;;;;5015331;28;20030;-70
2023/09/18 11:34:34;;;;;;;8.20;2.60;;;;;;;;;;5042963;28;20032;-73
2023/09/18 11:37:03;;;;;;;6.43;2.78;;;;;;;;;;5015310;28;20044;-73
2023/09/18 11:39:48;;;;;;;6.93;2.35;;;;;;;;;;5013292;28;20045;-70
2023/09/18 11:42:19;;;;;;;4.28;1.85;;;;;;;;;;5016251;28;20609;-72
2023/09/18 11:44:46;;;;;;;4.28;2.15;;;;;;;;;;5016912;28;20116;-67
2023/09/18 11:47:19;;;;;;;7.47;2.65;;;;;;;;;;5019056;28;20021;-68
2023/09/18 11:49:57;;;;;;;10.57;2.58;;;;;;;;;;5017232;28;20029;-69
2023/09/18 11:52:24;;;;;;;5.20;2.30;;;;;;;;;;5031431;28;20112;-70
2023/09/18 11:54:51;;;;;;;3.75;2.10;;;;;;;;;;5017951;28;20022;-68
2023/09/18 11:57:19;;;;;;;6.65;3.45;;;;;;;;;;5021152;28;20116;-68
2023/09/18 11:59:46;;;;;;;5.05;2.88;;;;;;;;;;5018872;28;20092;-67
2023/09/18 12:02:27;;;;;;;9.15;2.90;;;;;;;;;;5014778;28;20385;-68
2023/09/18 12:04:54;;;;;;;7.97;2.28;;;;;;;;;;5029124;28;20608;-68
2023/09/18 12:07:21;;;;;;;6.55;2.63;;;;;;;;;;5014017;28;20444;-68
2023/09/18 12:09:47;;;;;;;4.90;2.13;;;;;;;;;;5013129;28;20040;-69
2023/09/18 12:12:15;;;;;;;7.47;2.95;;;;;;;;;;5011640;28;20041;-69
2023/09/18 12:14:44;;;;;;;5.30;2.15;;;;;;;;;;5032215;28;20040;-68
2023/09/18 12:17:14;;;;;;;4.35;2.72;;;;;;;;;;5015008;28;20249;-70
2023/09/18 12:19:53;;;;;;;6.55;2.92;;;;;;;;;;5012253;28;20413;-71
2023/09/18 12:22:26;;;;;;;5.60;2.58;;;;;;;;;;5011988;28;20053;-69
2023/09/18 12:24:53;;;;;;;7.40;2.63;;;;;;;;;;5019692;28;20560;-69
2023/09/18 12:27:19;;;;;;;5.28;2.90;;;;;;;;;;5017390;28;20029;-69
2023/09/18 12:29:45;;;;;;;5.47;2.25;;;;;;;;;;5017513;28;20104;-70
2023/09/18 12:32:13;;;;;;;6.45;2.45;;;;;;;;;;5015372;28;20564;-69
2023/09/18 12:34:42;;;;;;;6.15;2.40;;;;;;;;;;5016045;28;20038;-69
2023/09/18 12:37:12;;;;;;;8.48;3.08;;;;;;;;;;5028475;28;20371;-69
2023/09/18 12:39:38;;;;;;;5.88;2.90;;;;;;;;;;5016078;28;20046;-69
2023/09/18 12:42:05;;;;;;;4.55;2.17;;;;;;;;;;5014806;28;20130;-70
2023/09/18 12:44:31;;;;;;;6.88;3.05;;;;;;;;;;5021843;28;20026;-70
2023/09/18 12:46:57;;;;;;;3.88;2.20;;;;;;;;;;5018595;28;20033;-71
2023/09/18 12:49:25;;;;;;;3.00;2.10;;;;;;;;;;5017305;28;20030;-70
2023/09/18 12:51:58;;;;;;;3.40;2.08;;;;;;;;;;5016167;28;21201;-70
2023/09/18 12:54:40;;;;;;;3.88;2.28;;;;;;;;;;5016489;28;20026;-70
2023/09/18 12:57:07;;;;;;;4.53;2.33;;;;;;;;;;5018147;28;20029;-69
2023/09/18 12:59:35;;;;;;;5.60;2.10;;;;;;;;;;5007529;28;20034;-70
2023/09/18 13:02:04;;;;;;;4.80;2.20;;;;;;;;;;5013589;28;20520;-70
2023/09/18 13:04:31;;;;;;;2.35;1.80;;;;;;;;;;5013613;28;20386;-70
2023/09/18 13:07:23;;;;;;;3.33;1.98;;;;;;;;;;5018877;28;20041;-72
2023/09/18 13:10:18;;;;;;;3.80;2.13;;;;;;;;;;5015060;28;20210;-71
2023/09/18 13:12:52;;;;;;;2.88;1.70;;;;;;;;;;5012847;28;21271;-71
2023/09/18 13:15:28;;;;;;;1.80;1.60;;;;;;;;;;5017332;28;20041;-71
2023/09/18 13:17:55;;;;;;;2.35;1.73;;;;;;;;;;5029447;28;20707;-72
2023/09/18 13:20:26;;;;;;;3.58;1.75;;;;;;;;;;5014085;28;20226;-73
2023/09/18 13:22:53;;;;;;;5.53;1.80;;;;;;;;;;5017330;28;20045;-72
2023/09/18 13:25:21;;;;;;;3.63;2.15;;;;;;;;;;5015733;28;20071;-71
2023/09/18 13:27:47;;;;;;;2.95;1.35;;;;;;;;;;5003099;28;20068;-70
2023/09/18 13:30:17;;;;;;;4.45;1.65;;;;;;;;;;5029570;28;20545;-70
2023/09/18 13:32:48;;;;;;;3.80;1.80;;;;;;;;;;5012052;28;20044;-69
2023/09/18 13:35:14;;;;;;;2.75;1.67;;;;;;;;;;5015403;28;20053;-68
2023/09/18 13:37:41;;;;;;;4.85;1.83;;;;;;;;;;5013777;28;20108;-69
2023/09/18 13:40:08;;;;;;;4.72;1.98;;;;;;;;;;5000381;28;20041;-69
2023/09/18 13:42:38;;;;;;;2.05;1.70;;;;;;;;;;5007783;28;20025;-67
2023/09/18 13:45:07;;;;;;;4.88;2.00;;;;;;;;;;5011101;28;20036;-70
2023/09/18 13:47:34;;;;;;;5.72;1.98;;;;;;;;;;5010230;28;20025;-67
2023/09/18 13:50:01;;;;;;;2.97;1.48;;;;;;;;;;5007306;28;20116;-71
2023/09/18 13:52:28;;;;;;;2.60;1.70;;;;;;;;;;5009003;28;20033;-68
2023/09/18 13:54:54;;;;;;;5.35;2.33;;;;;;;;;;5007535;28;20037;-69
2023/09/18 13:57:21;;;;;;;3.75;1.75;;;;;;;;;;5023386;28;20033;-68
2023/09/18 13:59:48;;;;;;;3.03;1.80;;;;;;;;;;5023851;28;20124;-69
2023/09/18 14:02:15;;;;;;;3.60;2.05;;;;;;;;;;5010343;28;20041;-68
2023/09/18 14:04:41;;;;;;;3.13;1.50;;;;;;;;;;5012273;28;20029;-71
2023/09/18 14:07:08;;;;;;;1.67;1.50;;;;;;;;;;5007832;28;20033;-69
2023/09/18 14:09:34;;;;;;;2.53;1.50;;;;;;;;;;5009086;28;20021;-70
2023/09/18 14:12:01;;;;;;;3.28;1.65;;;;;;;;;;5028847;28;20564;-69
2023/09/18 14:14:27;;;;;;;2.60;1.70;;;;;;;;;;5009550;28;20033;-72
2023/09/18 14:16:57;;;;;;;2.20;1.60;;;;;;;;;;5007182;28;21385;-69
2023/09/18 14:19:23;;;;;;;3.30;1.90;;;;;;;;;;5007699;28;20028;-70
2023/09/18 14:21:49;;;;;;;2.10;1.90;;;;;;;;;;5028240;28;20025;-70
2023/09/18 14:24:18;;;;;;;2.03;1.70;;;;;;;;;;5008251;28;20060;-70
2023/09/18 14:26:46;;;;;;;2.75;1.73;;;;;;;;;;5009953;28;20025;-70
2023/09/18 14:29:13;;;;;;;4.70;1.60;;;;;;;;;;5010770;28;20504;-69
2023/09/18 14:31:39;;;;;;;2.28;1.67;;;;;;;;;;5008106;28;20481;-70
2023/09/18 14:34:05;;;;;;;2.78;1.60;;;;;;;;;;5008229;28;20139;-71
2023/09/18 14:36:35;;;;;;;1.60;1.50;;;;;;;;;;5014100;28;20610;-69
2023/09/18 14:39:02;;;;;;;6.45;1.85;;;;;;;;;;5008615;28;20463;-69
2023/09/18 14:41:28;;;;;;;3.08;1.85;;;;;;;;;;5009417;28;20041;-69
2023/09/18 14:43:57;;;;;;;3.08;1.67;;;;;;;;;;5005130;28;20025;-70